sensor_id;sensor_type;location;lat;lon;timestamp;pressure;altitude;pressure_sealevel;temperature;humidity
13080;BME280;6606;49.154;9.280;2023-05-03T00:01:10;100514.78;;;9.82;100.00
13080;BME280;6606;49.154;9.280;2023-05-03T00:03:54;100509.56;;;9.79;100.00
13080;BME280;6606;49.154;9.280;2023-05-03T00:06:36;100519.16;;;9.83;100.00
13080;BME280;6606;49.154;9.280;2023-05-03T00:09:17;100519.16;;;9.83;100.00
13080;BME280;6606;49.154;9.280;2023-05-03T00:12:03;100520.94;;;9.82;100.00
13080;BME280;6606;49.154;9.280;2023-05-03T00:14:45;100518.53;;;9.75;100.00
13080;BME280;6606;49.154;9.280;2023-05-03T00:17:28;100522.16;;;9.72;100.00
13080;BME280;6606;49.154;9.280;2023-05-03T00:20:12;100520.16;;;9.79;100.00
13080;BME280;6606;49.154;9.280;2023-05-03T00:22:54;100517.72;;;9.73;100.00
13080;BME280;6606;49.154;9.280;2023-05-03T00:25:36;100524.13;;;9.65;100.00
13080;BME280;6606;49.154;9.280;2023-05-03T00:28:18;100519.91;;;9.60;100.00
13080;BME280;6606;49.154;9.280;2023-05-03T00:31:05;100518.09;;;9.60;100.00
13080;BME280;6606;49.154;9.280;2023-05-03T00:33:48;100519.66;;;9.67;100.00
13080;BME280;6606;49.154;9.280;2023-05-03T00:36:31;100518.22;;;9.57;100.00
13080;BME280;6606;49.154;9.280;2023-05-03T00:39:13;100510.69;;;9.45;100.00
13080;BME280;6606;49.154;9.280;2023-05-03T00:41:55;100513.94;;;9.53;100.00
13080;BME280;6606;49.154;9.280;2023-05-03T00:44:37;100514.47;;;9.36;100.00
13080;BME280;6606;49.154;9.280;2023-05-03T00:47:19;100516.78;;;9.47;100.00
13080;BME280;6606;49.154;9.280;2023-05-03T00:50:02;100515.88;;;9.48;100.00
13080;BME280;6606;49.154;9.280;2023-05-03T00:52:45;100502.75;;;9.45;100.00
13080;BME280;6606;49.154;9.280;2023-05-03T00:55:28;100501.41;;;9.32;100.00
13080;BME280;6606;49.154;9.280;2023-05-03T00:58:11;100497.63;;;9.39;100.00
13080;BME280;6606;49.154;9.280;2023-05-03T01:00:53;100493.31;;;9.36;100.00
13080;BME280;6606;49.154;9.280;2023-05-03T01:03:37;100503.00;;;9.37;100.00
13080;BME280;6606;49.154;9.280;2023-05-03T01:06:27;100495.16;;;9.34;100.00
13080;BME280;6606;49.154;9.280;2023-05-03T01:09:26;100491.69;;;9.32;100.00
13080;BME280;6606;49.154;9.280;2023-05-03T01:12:19;100501.47;;;9.29;100.00
13080;BME280;6606;49.154;9.280;2023-05-03T01:15:09;100496.28;;;9.25;100.00
13080;BME280;6606;49.154;9.280;2023-05-03T01:17:57;100496.19;;;9.29;100.00
13080;BME280;6606;49.154;9.280;2023-05-03T01:20:43;100502.97;;;9.09;100.00
13080;BME280;6606;49.154;9.280;2023-05-03T01:23:31;100505.72;;;9.06;100.00
13080;BME280;6606;49.154;9.280;2023-05-03T01:26:18;100506.78;;;9.00;100.00
13080;BME280;6606;49.154;9.280;2023-05-03T01:29:01;100495.25;;;9.03;100.00
13080;BME280;6606;49.154;9.280;2023-05-03T01:31:47;100505.13;;;8.96;100.00
13080;BME280;6606;49.154;9.280;2023-05-03T01:34:47;100498.59;;;8.78;100.00
13080;BME280;6606;49.154;9.280;2023-05-03T01:37:31;100502.34;;;8.42;100.00
13080;BME280;6606;49.154;9.280;2023-05-03T01:40:14;100494.22;;;8.48;100.00
13080;BME280;6606;49.154;9.280;2023-05-03T01:43:01;100486.50;;;8.42;100.00
13080;BME280;6606;49.154;9.280;2023-05-03T01:45:44;100488.00;;;8.50;100.00
13080;BME280;6606;49.154;9.280;2023-05-03T01:48:26;100492.53;;;8.45;100.00
13080;BME280;6606;49.154;9.280;2023-05-03T01:51:08;100493.50;;;8.43;100.00
13080;BME280;6606;49.154;9.280;2023-05-03T01:53:50;100495.16;;;8.47;100.00
13080;BME280;6606;49.154;9.280;2023-05-03T01:56:34;100495.31;;;8.41;100.00
13080;BME280;6606;49.154;9.280;2023-05-03T01:59:17;100492.81;;;8.34;100.00
13080;BME280;6606;49.154;9.280;2023-05-03T02:01:59;100498.78;;;8.43;100.00
13080;BME280;6606;49.154;9.280;2023-05-03T02:04:41;100495.69;;;8.25;100.00
13080;BME280;6606;49.154;9.280;2023-05-03T02:07:23;100498.41;;;8.22;100.00
13080;BME280;6606;49.154;9.280;2023-05-03T02:10:08;100495.13;;;8.14;100.00
13080;BME280;6606;49.154;9.280;2023-05-03T02:12:53;100506.09;;;7.99;100.00
13080;BME280;6606;49.154;9.280;2023-05-03T02:15:36;100503.78;;;7.86;100.00
13080;BME280;6606;49.154;9.280;2023-05-03T02:18:18;100504.47;;;7.93;100.00
13080;BME280;6606;49.154;9.280;2023-05-03T02:21:01;100496.88;;;8.15;100.00
13080;BME280;6606;49.154;9.280;2023-05-03T02:23:44;100500.13;;;8.25;100.00
13080;BME280;6606;49.154;9.280;2023-05-03T02:26:25;100492.94;;;8.30;100.00
13080;BME280;6606;49.154;9.280;2023-05-03T02:29:11;100498.97;;;8.33;100.00
13080;BME280;6606;49.154;9.280;2023-05-03T02:31:54;100494.50;;;8.37;100.00
13080;BME280;6606;49.154;9.280;2023-05-03T02:34:38;100497.09;;;8.38;100.00
13080;BME280;6606;49.154;9.280;2023-05-03T02:37:23;100502.47;;;8.35;100.00
13080;BME280;6606;49.154;9.280;2023-05-03T02:40:06;100498.41;;;8.24;100.00
13080;BME280;6606;49.154;9.280;2023-05-03T02:42:49;100493.66;;;8.36;100.00
13080;BME280;6606;49.154;9.280;2023-05-03T02:45:38;100491.31;;;8.26;100.00
13080;BME280;6606;49.154;9.280;2023-05-03T02:48:21;100498.03;;;8.05;100.00
13080;BME280;6606;49.154;9.280;2023-05-03T02:51:04;100501.41;;;8.10;100.00
13080;BME280;6606;49.154;9.280;2023-05-03T02:53:46;100490.69;;;8.16;100.00
13080;BME280;6606;49.154;9.280;2023-05-03T02:56:28;100496.03;;;8.13;100.00
13080;BME280;6606;49.154;9.280;2023-05-03T02:59:10;100498.78;;;8.10;100.00
13080;BME280;6606;49.154;9.280;2023-05-03T03:01:53;100505.78;;;8.11;100.00
13080;BME280;6606;49.154;9.280;2023-05-03T03:04:37;100497.75;;;8.14;100.00
13080;BME280;6606;49.154;9.280;2023-05-03T03:07:19;100498.91;;;8.04;100.00
13080;BME280;6606;49.154;9.280;2023-05-03T03:10:01;100501.56;;;8.04;100.00
13080;BME280;6606;49.154;9.280;2023-05-03T03:12:44;100505.03;;;8.06;100.00
13080;BME280;6606;49.154;9.280;2023-05-03T03:15:36;100502.50;;;8.01;100.00
13080;BME280;6606;49.154;9.280;2023-05-03T03:18:18;100498.22;;;7.97;100.00
13080;BME280;6606;49.154;9.280;2023-05-03T03:21:02;100499.91;;;8.00;100.00
13080;BME280;6606;49.154;9.280;2023-05-03T03:23:46;100497.19;;;8.03;100.00
13080;BME280;6606;49.154;9.280;2023-05-03T03:26:28;100493.16;;;7.89;100.00
13080;BME280;6606;49.154;9.280;2023-05-03T03:29:11;100504.38;;;7.98;100.00
13080;BME280;6606;49.154;9.280;2023-05-03T03:31:56;100507.00;;;7.98;100.00
13080;BME280;6606;49.154;9.280;2023-05-03T03:34:38;100496.75;;;7.85;100.00
13080;BME280;6606;49.154;9.280;2023-05-03T03:37:21;100508.97;;;7.89;100.00
13080;BME280;6606;49.154;9.280;2023-05-03T03:40:04;100504.53;;;7.91;100.00
13080;BME280;6606;49.154;9.280;2023-05-03T03:42:49;100503.69;;;7.89;100.00
13080;BME280;6606;49.154;9.280;2023-05-03T03:45:30;100512.75;;;7.79;100.00
13080;BME280;6606;49.154;9.280;2023-05-03T03:48:13;100505.88;;;7.72;100.00
13080;BME280;6606;49.154;9.280;2023-05-03T03:50:55;100509.56;;;7.66;100.00
13080;BME280;6606;49.154;9.280;2023-05-03T03:53:45;100522.00;;;7.61;100.00
13080;BME280;6606;49.154;9.280;2023-05-03T03:56:28;100530.84;;;7.59;100.00
13080;BME280;6606;49.154;9.280;2023-05-03T03:59:10;100531.78;;;7.56;100.00
13080;BME280;6606;49.154;9.280;2023-05-03T04:10:35;100530.25;;;7.46;100.00
13080;BME280;6606;49.154;9.280;2023-05-03T04:13:19;100544.28;;;7.49;100.00
13080;BME280;6606;49.154;9.280;2023-05-03T04:16:04;100539.59;;;7.61;100.00
13080;BME280;6606;49.154;9.280;2023-05-03T04:18:48;100535.06;;;7.66;100.00
13080;BME280;6606;49.154;9.280;2023-05-03T04:21:29;100534.13;;;7.68;100.00
13080;BME280;6606;49.154;9.280;2023-05-03T04:24:15;100532.25;;;7.74;100.00
13080;BME280;6606;49.154;9.280;2023-05-03T04:26:59;100536.47;;;7.81;100.00
13080;BME280;6606;49.154;9.280;2023-05-03T04:29:43;100533.88;;;7.79;100.00
13080;BME280;6606;49.154;9.280;2023-05-03T04:32:25;100539.06;;;7.82;100.00
13080;BME280;6606;49.154;9.280;2023-05-03T04:35:10;100531.91;;;7.87;100.00
13080;BME280;6606;49.154;9.280;2023-05-03T04:37:56;100540.50;;;7.96;100.00
13080;BME280;6606;49.154;9.280;2023-05-03T04:40:40;100541.13;;;8.05;100.00
13080;BME280;6606;49.154;9.280;2023-05-03T04:43:25;100543.56;;;8.13;100.00
13080;BME280;6606;49.154;9.280;2023-05-03T04:46:07;100547.00;;;8.17;100.00
13080;BME280;6606;49.154;9.280;2023-05-03T04:48:50;100549.53;;;8.20;100.00
13080;BME280;6606;49.154;9.280;2023-05-03T04:51:31;100539.84;;;8.20;100.00
13080;BME280;6606;49.154;9.280;2023-05-03T04:54:14;100545.41;;;8.09;100.00
13080;BME280;6606;49.154;9.280;2023-05-03T04:56:56;100546.00;;;8.21;100.00
13080;BME280;6606;49.154;9.280;2023-05-03T04:59:39;100548.50;;;8.25;100.00
13080;BME280;6606;49.154;9.280;2023-05-03T05:02:22;100559.06;;;8.25;100.00
13080;BME280;6606;49.154;9.280;2023-05-03T05:05:07;100559.63;;;8.38;100.00
13080;BME280;6606;49.154;9.280;2023-05-03T05:07:50;100562.09;;;8.46;100.00
13080;BME280;6606;49.154;9.280;2023-05-03T05:10:36;100565.25;;;8.60;100.00
13080;BME280;6606;49.154;9.280;2023-05-03T05:13:19;100559.88;;;8.62;100.00
13080;BME280;6606;49.154;9.280;2023-05-03T05:16:02;100566.69;;;8.70;100.00
13080;BME280;6606;49.154;9.280;2023-05-03T05:18:46;100563.81;;;8.79;100.00
13080;BME280;6606;49.154;9.280;2023-05-03T05:21:32;100567.28;;;8.82;100.00
13080;BME280;6606;49.154;9.280;2023-05-03T05:24:15;100569.81;;;8.85;100.00
13080;BME280;6606;49.154;9.280;2023-05-03T05:31:11;100571.06;;;9.02;100.00
13080;BME280;6606;49.154;9.280;2023-05-03T05:33:53;100567.72;;;8.96;100.00
13080;BME280;6606;49.154;9.280;2023-05-03T05:36:37;100564.63;;;8.82;100.00
13080;BME280;6606;49.154;9.280;2023-05-03T05:39:20;100572.91;;;8.99;100.00
13080;BME280;6606;49.154;9.280;2023-05-03T05:42:03;100569.44;;;8.97;100.00
13080;BME280;6606;49.154;9.280;2023-05-03T05:44:45;100566.00;;;8.95;100.00
13080;BME280;6606;49.154;9.280;2023-05-03T05:47:28;100563.81;;;9.09;100.00
13080;BME280;6606;49.154;9.280;2023-05-03T05:50:12;100561.81;;;9.17;100.00
13080;BME280;6606;49.154;9.280;2023-05-03T05:52:54;100567.22;;;9.13;100.00
13080;BME280;6606;49.154;9.280;2023-05-03T05:55:38;100562.03;;;9.39;100.00
13080;BME280;6606;49.154;9.280;2023-05-03T06:01:35;100567.97;;;9.46;100.00
13080;BME280;6606;49.154;9.280;2023-05-03T06:03:32;100563.75;;;9.68;100.00
13080;BME280;6606;49.154;9.280;2023-05-03T06:06:20;100560.28;;;9.66;100.00
13080;BME280;6606;49.154;9.280;2023-05-03T06:09:02;100555.97;;;9.90;100.00
13080;BME280;6606;49.154;9.280;2023-05-03T06:11:44;100556.00;;;9.89;100.00
13080;BME280;6606;49.154;9.280;2023-05-03T06:14:28;100559.78;;;10.08;100.00
13080;BME280;6606;49.154;9.280;2023-05-03T06:17:10;100551.84;;;10.08;100.00
13080;BME280;6606;49.154;9.280;2023-05-03T06:19:53;100560.50;;;10.13;100.00
13080;BME280;6606;49.154;9.280;2023-05-03T06:22:35;100555.78;;;10.48;100.00
13080;BME280;6606;49.154;9.280;2023-05-03T06:25:17;100557.31;;;10.29;100.00
13080;BME280;6606;49.154;9.280;2023-05-03T06:28:02;100555.31;;;10.61;100.00
13080;BME280;6606;49.154;9.280;2023-05-03T06:30:49;100556.88;;;10.43;100.00
13080;BME280;6606;49.154;9.280;2023-05-03T06:33:32;100562.69;;;10.77;100.00
13080;BME280;6606;49.154;9.280;2023-05-03T06:36:15;100561.22;;;10.92;100.00
13080;BME280;6606;49.154;9.280;2023-05-03T06:38:57;100556.41;;;10.80;100.00
13080;BME280;6606;49.154;9.280;2023-05-03T06:41:38;100560.66;;;11.08;100.00
13080;BME280;6606;49.154;9.280;2023-05-03T06:44:20;100558.91;;;11.30;100.00
13080;BME280;6606;49.154;9.280;2023-05-03T06:47:03;100564.63;;;11.19;100.00
13080;BME280;6606;49.154;9.280;2023-05-03T06:49:45;100556.13;;;11.33;100.00
13080;BME280;6606;49.154;9.280;2023-05-03T06:52:28;100551.31;;;11.43;100.00
13080;BME280;6606;49.154;9.280;2023-05-03T06:55:10;100564.78;;;11.38;100.00
13080;BME280;6606;49.154;9.280;2023-05-03T06:57:51;100556.38;;;11.71;100.00
13080;BME280;6606;49.154;9.280;2023-05-03T07:00:33;100554.28;;;11.79;100.00
13080;BME280;6606;49.154;9.280;2023-05-03T07:03:15;100554.31;;;12.01;100.00
13080;BME280;6606;49.154;9.280;2023-05-03T07:05:58;100547.66;;;12.12;100.00
13080;BME280;6606;49.154;9.280;2023-05-03T07:08:41;100538.50;;;12.39;100.00
13080;BME280;6606;49.154;9.280;2023-05-03T07:11:23;100539.13;;;13.42;100.00
13080;BME280;6606;49.154;9.280;2023-05-03T07:14:05;100532.84;;;16.54;100.00
13080;BME280;6606;49.154;9.280;2023-05-03T07:16:47;100523.78;;;18.22;100.00
13080;BME280;6606;49.154;9.280;2023-05-03T07:19:29;100535.22;;;17.98;98.08
13080;BME280;6606;49.154;9.280;2023-05-03T07:22:12;100523.50;;;19.64;90.59
13080;BME280;6606;49.154;9.280;2023-05-03T07:24:55;100510.63;;;19.57;84.26
13080;BME280;6606;49.154;9.280;2023-05-03T07:27:38;100528.59;;;19.32;83.60
13080;BME280;6606;49.154;9.280;2023-05-03T07:30:21;100519.16;;;20.45;75.39
13080;BME280;6606;49.154;9.280;2023-05-03T07:33:03;100521.44;;;21.19;70.24
13080;BME280;6606;49.154;9.280;2023-05-03T07:35:44;100518.34;;;21.57;64.63
13080;BME280;6606;49.154;9.280;2023-05-03T07:38:26;100517.72;;;21.54;66.69
13080;BME280;6606;49.154;9.280;2023-05-03T07:41:10;100503.94;;;21.68;67.10
13080;BME280;6606;49.154;9.280;2023-05-03T07:43:52;100502.94;;;21.69;64.00
13080;BME280;6606;49.154;9.280;2023-05-03T07:46:36;100492.69;;;22.58;59.42
13080;BME280;6606;49.154;9.280;2023-05-03T07:49:21;100497.22;;;21.51;65.53
13080;BME280;6606;49.154;9.280;2023-05-03T07:52:03;100483.97;;;21.91;62.53
13080;BME280;6606;49.154;9.280;2023-05-03T07:54:45;100482.91;;;22.04;63.01
13080;BME280;6606;49.154;9.280;2023-05-03T07:57:28;100477.50;;;22.67;56.62
13080;BME280;6606;49.154;9.280;2023-05-03T08:00:11;100474.81;;;23.07;55.77
13080;BME280;6606;49.154;9.280;2023-05-03T08:02:53;100481.06;;;24.06;50.91
13080;BME280;6606;49.154;9.280;2023-05-03T08:05:35;100480.22;;;23.86;51.44
13080;BME280;6606;49.154;9.280;2023-05-03T08:08:17;100483.63;;;24.08;50.25
13080;BME280;6606;49.154;9.280;2023-05-03T08:10:59;100487.06;;;22.80;58.24
13080;BME280;6606;49.154;9.280;2023-05-03T08:13:42;100474.66;;;22.99;54.94
13080;BME280;6606;49.154;9.280;2023-05-03T08:16:24;100470.22;;;23.67;50.50
13080;BME280;6606;49.154;9.280;2023-05-03T08:19:06;100480.13;;;23.18;54.36
13080;BME280;6606;49.154;9.280;2023-05-03T08:21:48;100486.31;;;23.59;51.45
13080;BME280;6606;49.154;9.280;2023-05-03T08:24:33;100482.56;;;22.91;55.34
13080;BME280;6606;49.154;9.280;2023-05-03T08:27:15;100484.38;;;23.11;55.16
13080;BME280;6606;49.154;9.280;2023-05-03T08:29:58;100486.34;;;22.48;57.27
13080;BME280;6606;49.154;9.280;2023-05-03T08:32:40;100488.06;;;21.42;63.18
13080;BME280;6606;49.154;9.280;2023-05-03T08:35:22;100487.19;;;18.98;82.04
13080;BME280;6606;49.154;9.280;2023-05-03T08:38:04;100485.44;;;17.94;100.00
13080;BME280;6606;49.154;9.280;2023-05-03T08:40:47;100482.09;;;17.09;100.00
13080;BME280;6606;49.154;9.280;2023-05-03T08:43:36;100495.25;;;17.27;100.00
13080;BME280;6606;49.154;9.280;2023-05-03T08:46:22;100493.38;;;16.71;100.00
13080;BME280;6606;49.154;9.280;2023-05-03T08:49:08;100486.31;;;16.70;100.00
13080;BME280;6606;49.154;9.280;2023-05-03T08:51:50;100490.22;;;16.65;100.00
13080;BME280;6606;49.154;9.280;2023-05-03T08:54:33;100493.75;;;16.65;100.00
13080;BME280;6606;49.154;9.280;2023-05-03T08:57:16;100482.19;;;16.65;100.00
13080;BME280;6606;49.154;9.280;2023-05-03T08:59:58;100492.50;;;16.42;100.00
13080;BME280;6606;49.154;9.280;2023-05-03T09:02:43;100492.44;;;16.87;100.00
13080;BME280;6606;49.154;9.280;2023-05-03T09:05:33;100484.75;;;16.66;100.00
13080;BME280;6606;49.154;9.280;2023-05-03T09:08:18;100497.94;;;16.69;100.00
13080;BME280;6606;49.154;9.280;2023-05-03T09:11:02;100489.56;;;16.76;100.00
13080;BME280;6606;49.154;9.280;2023-05-03T09:13:43;100481.44;;;16.77;100.00
13080;BME280;6606;49.154;9.280;2023-05-03T09:16:26;100482.75;;;16.56;100.00
13080;BME280;6606;49.154;9.280;2023-05-03T09:19:11;100484.41;;;16.73;100.00
13080;BME280;6606;49.154;9.280;2023-05-03T09:22:05;100476.19;;;16.90;100.00
13080;BME280;6606;49.154;9.280;2023-05-03T09:24:50;100485.22;;;17.43;100.00
13080;BME280;6606;49.154;9.280;2023-05-03T09:27:33;100471.06;;;17.68;100.00
13080;BME280;6606;49.154;9.280;2023-05-03T09:30:18;100476.41;;;17.95;100.00
13080;BME280;6606;49.154;9.280;2023-05-03T09:33:00;100485.69;;;18.55;100.00
13080;BME280;6606;49.154;9.280;2023-05-03T09:35:55;100480.22;;;18.57;100.00
13080;BME280;6606;49.154;9.280;2023-05-03T09:38:37;100473.44;;;18.26;100.00
13080;BME280;6606;49.154;9.280;2023-05-03T09:41:30;100475.59;;;18.08;100.00
13080;BME280;6606;49.154;9.280;2023-05-03T09:44:12;100475.03;;;17.75;100.00
13080;BME280;6606;49.154;9.280;2023-05-03T09:47:03;100474.31;;;18.26;100.00
13080;BME280;6606;49.154;9.280;2023-05-03T09:49:46;100468.63;;;18.18;100.00
13080;BME280;6606;49.154;9.280;2023-05-03T09:52:30;100471.75;;;18.63;100.00
13080;BME280;6606;49.154;9.280;2023-05-03T09:55:11;100472.72;;;18.75;100.00
13080;BME280;6606;49.154;9.280;2023-05-03T09:57:54;100466.28;;;19.62;96.10
13080;BME280;6606;49.154;9.280;2023-05-03T10:00:37;100461.44;;;19.43;100.00
13080;BME280;6606;49.154;9.280;2023-05-03T10:03:23;100461.09;;;19.48;97.50
13080;BME280;6606;49.154;9.280;2023-05-03T10:06:20;100460.38;;;19.57;89.99
13080;BME280;6606;49.154;9.280;2023-05-03T10:09:11;100462.97;;;19.35;96.82
13080;BME280;6606;49.154;9.280;2023-05-03T10:11:58;100464.63;;;18.87;97.51
13080;BME280;6606;49.154;9.280;2023-05-03T10:14:42;100454.16;;;19.57;90.40
13080;BME280;6606;49.154;9.280;2023-05-03T10:17:27;100465.59;;;18.61;100.00
13080;BME280;6606;49.154;9.280;2023-05-03T10:20:14;100466.38;;;18.63;99.36
13080;BME280;6606;49.154;9.280;2023-05-03T10:23:11;100457.59;;;19.35;92.91
13080;BME280;6606;49.154;9.280;2023-05-03T10:26:13;100452.81;;;18.77;98.86
13080;BME280;6606;49.154;9.280;2023-05-03T10:28:54;100445.34;;;19.54;100.00
13080;BME280;6606;49.154;9.280;2023-05-03T10:31:42;100457.53;;;19.47;92.02
13080;BME280;6606;49.154;9.280;2023-05-03T10:34:30;100450.97;;;19.27;90.43
13080;BME280;6606;49.154;9.280;2023-05-03T10:37:12;100455.41;;;19.64;93.18
13080;BME280;6606;49.154;9.280;2023-05-03T10:39:54;100453.06;;;19.83;91.76
13080;BME280;6606;49.154;9.280;2023-05-03T10:42:39;100456.78;;;18.59;97.27
13080;BME280;6606;49.154;9.280;2023-05-03T10:45:24;100441.94;;;18.92;93.02
13080;BME280;6606;49.154;9.280;2023-05-03T10:48:17;100445.06;;;19.46;96.28
13080;BME280;6606;49.154;9.280;2023-05-03T10:51:32;100434.34;;;19.82;84.37
13080;BME280;6606;49.154;9.280;2023-05-03T10:54:16;100436.66;;;19.75;81.63
13080;BME280;6606;49.154;9.280;2023-05-03T10:56:58;100429.44;;;19.75;85.20
13080;BME280;6606;49.154;9.280;2023-05-03T10:59:49;100427.09;;;18.99;88.89
13080;BME280;6606;49.154;9.280;2023-05-03T11:02:37;100412.97;;;19.56;84.47
13080;BME280;6606;49.154;9.280;2023-05-03T11:05:21;100419.28;;;20.26;80.77
13080;BME280;6606;49.154;9.280;2023-05-03T11:08:10;100409.84;;;20.99;76.92
13080;BME280;6606;49.154;9.280;2023-05-03T11:10:57;100414.13;;;20.11;84.71
13080;BME280;6606;49.154;9.280;2023-05-03T11:13:39;100406.94;;;19.76;86.84
13080;BME280;6606;49.154;9.280;2023-05-03T11:16:22;100402.66;;;19.50;89.94
13080;BME280;6606;49.154;9.280;2023-05-03T11:19:04;100419.25;;;19.44;94.13
13080;BME280;6606;49.154;9.280;2023-05-03T11:21:46;100404.75;;;19.22;90.79
13080;BME280;6606;49.154;9.280;2023-05-03T11:24:28;100408.81;;;19.63;92.45
13080;BME280;6606;49.154;9.280;2023-05-03T11:27:10;100401.19;;;19.46;93.91
13080;BME280;6606;49.154;9.280;2023-05-03T11:29:53;100388.88;;;19.90;80.29
13080;BME280;6606;49.154;9.280;2023-05-03T11:32:39;100384.47;;;19.77;80.13
13080;BME280;6606;49.154;9.280;2023-05-03T11:35:22;100386.47;;;19.98;87.44
13080;BME280;6606;49.154;9.280;2023-05-03T11:38:06;100386.34;;;20.33;84.27
13080;BME280;6606;49.154;9.280;2023-05-03T11:40:48;100380.00;;;20.46;75.70
13080;BME280;6606;49.154;9.280;2023-05-03T11:43:29;100377.66;;;20.18;85.76
13080;BME280;6606;49.154;9.280;2023-05-03T11:46:15;100386.13;;;19.08;89.40
13080;BME280;6606;49.154;9.280;2023-05-03T11:48:59;100380.56;;;18.49;91.84
13080;BME280;6606;49.154;9.280;2023-05-03T11:51:41;100374.22;;;19.59;92.21
13080;BME280;6606;49.154;9.280;2023-05-03T11:54:23;100374.03;;;19.38;85.51
13080;BME280;6606;49.154;9.280;2023-05-03T11:57:11;100364.50;;;19.45;84.76
13080;BME280;6606;49.154;9.280;2023-05-03T11:59:53;100372.97;;;19.87;86.88
13080;BME280;6606;49.154;9.280;2023-05-03T12:02:35;100366.53;;;19.65;93.58
13080;BME280;6606;49.154;9.280;2023-05-03T12:05:20;100357.00;;;19.61;81.81
13080;BME280;6606;49.154;9.280;2023-05-03T12:08:02;100355.00;;;20.21;78.38
13080;BME280;6606;49.154;9.280;2023-05-03T12:10:44;100365.19;;;20.17;82.34
13080;BME280;6606;49.154;9.280;2023-05-03T12:13:26;100364.69;;;20.01;78.00
13080;BME280;6606;49.154;9.280;2023-05-03T12:16:10;100369.94;;;20.03;76.08
13080;BME280;6606;49.154;9.280;2023-05-03T12:18:55;100369.34;;;20.33;75.81
13080;BME280;6606;49.154;9.280;2023-05-03T12:21:45;100366.16;;;20.73;74.14
13080;BME280;6606;49.154;9.280;2023-05-03T12:24:27;100366.72;;;19.86;69.75
13080;BME280;6606;49.154;9.280;2023-05-03T12:27:08;100365.66;;;19.53;76.74
13080;BME280;6606;49.154;9.280;2023-05-03T12:29:52;100368.44;;;19.17;81.66
13080;BME280;6606;49.154;9.280;2023-05-03T12:32:33;100356.75;;;19.64;79.52
13080;BME280;6606;49.154;9.280;2023-05-03T12:35:17;100351.19;;;19.90;73.71
13080;BME280;6606;49.154;9.280;2023-05-03T12:38:01;100352.56;;;20.29;77.46
13080;BME280;6606;49.154;9.280;2023-05-03T12:40:43;100348.78;;;19.98;70.01
13080;BME280;6606;49.154;9.280;2023-05-03T12:43:26;100347.31;;;20.28;73.92
13080;BME280;6606;49.154;9.280;2023-05-03T12:46:08;100341.44;;;20.23;79.47
13080;BME280;6606;49.154;9.280;2023-05-03T12:48:51;100334.81;;;20.60;67.86
13080;BME280;6606;49.154;9.280;2023-05-03T12:51:33;100340.56;;;20.45;69.72
13080;BME280;6606;49.154;9.280;2023-05-03T12:54:16;100333.13;;;20.59;66.92
13080;BME280;6606;49.154;9.280;2023-05-03T12:57:01;100337.50;;;20.49;63.72
13080;BME280;6606;49.154;9.280;2023-05-03T12:59:43;100342.63;;;20.52;65.50
13080;BME280;6606;49.154;9.280;2023-05-03T13:02:28;100336.22;;;20.87;63.90
13080;BME280;6606;49.154;9.280;2023-05-03T13:05:10;100327.66;;;21.14;61.77
13080;BME280;6606;49.154;9.280;2023-05-03T13:07:52;100324.25;;;20.80;60.45
13080;BME280;6606;49.154;9.280;2023-05-03T13:10:35;100328.28;;;21.18;62.07
13080;BME280;6606;49.154;9.280;2023-05-03T13:13:17;100320.31;;;21.48;60.37
13080;BME280;6606;49.154;9.280;2023-05-03T13:16:00;100316.44;;;21.41;60.13
13080;BME280;6606;49.154;9.280;2023-05-03T13:18:42;100319.81;;;21.22;58.60
13080;BME280;6606;49.154;9.280;2023-05-03T13:21:24;100323.09;;;21.26;62.19
13080;BME280;6606;49.154;9.280;2023-05-03T13:24:07;100316.44;;;21.30;59.53
13080;BME280;6606;49.154;9.280;2023-05-03T13:26:50;100311.03;;;21.41;57.92
13080;BME280;6606;49.154;9.280;2023-05-03T13:29:32;100294.91;;;21.72;57.59
13080;BME280;6606;49.154;9.280;2023-05-03T13:32:14;100304.06;;;21.81;59.13
13080;BME280;6606;49.154;9.280;2023-05-03T13:34:56;100296.44;;;20.79;61.61
13080;BME280;6606;49.154;9.280;2023-05-03T13:37:37;100304.66;;;20.78;59.66
13080;BME280;6606;49.154;9.280;2023-05-03T13:40:19;100295.75;;;20.98;55.45
13080;BME280;6606;49.154;9.280;2023-05-03T13:43:02;100300.13;;;21.11;54.70
13080;BME280;6606;49.154;9.280;2023-05-03T13:45:45;100295.53;;;21.01;53.38
13080;BME280;6606;49.154;9.280;2023-05-03T13:48:26;100286.34;;;21.25;56.21
13080;BME280;6606;49.154;9.280;2023-05-03T13:51:09;100293.63;;;21.13;63.73
13080;BME280;6606;49.154;9.280;2023-05-03T13:53:51;100281.16;;;20.80;58.05
13080;BME280;6606;49.154;9.280;2023-05-03T13:56:58;100271.66;;;21.18;59.81
13080;BME280;6606;49.154;9.280;2023-05-03T14:13:23;100263.03;;;21.24;57.32
13080;BME280;6606;49.154;9.280;2023-05-03T14:16:05;100251.94;;;21.59;57.04
13080;BME280;6606;49.154;9.280;2023-05-03T14:18:47;100252.59;;;21.30;53.94
13080;BME280;6606;49.154;9.280;2023-05-03T14:21:29;100239.31;;;20.97;52.88
13080;BME280;6606;49.154;9.280;2023-05-03T14:24:11;100241.88;;;21.19;53.08
13080;BME280;6606;49.154;9.280;2023-05-03T14:26:53;100234.78;;;21.60;48.98
13080;BME280;6606;49.154;9.280;2023-05-03T14:29:36;100230.75;;;21.34;55.90
13080;BME280;6606;49.154;9.280;2023-05-03T14:32:19;100238.38;;;21.07;58.70
13080;BME280;6606;49.154;9.280;2023-05-03T14:35:01;100225.44;;;21.43;52.78
13080;BME280;6606;49.154;9.280;2023-05-03T14:37:43;100224.72;;;21.72;53.75
13080;BME280;6606;49.154;9.280;2023-05-03T14:40:25;100217.50;;;21.42;59.82
13080;BME280;6606;49.154;9.280;2023-05-03T14:43:07;100230.16;;;21.30;60.76
13080;BME280;6606;49.154;9.280;2023-05-03T14:45:50;100227.81;;;21.58;47.52
13080;BME280;6606;49.154;9.280;2023-05-03T14:48:31;100234.25;;;21.24;50.50
13080;BME280;6606;49.154;9.280;2023-05-03T14:51:13;100228.66;;;21.16;49.78
13080;BME280;6606;49.154;9.280;2023-05-03T14:53:55;100225.75;;;20.87;49.67